Chauvin, Louisiana
Current Conditions -  °F | °C
As of 3:50 PM on Thursday 20 Nov 2014 (Local Time) from KHUM Reporting Station
Scattered Clouds Scattered Clouds  
Wind Chill: 66°   Ceiling: Unl
Heat Index: 66°   Visibility: 7mi
Dew Point: 46°   Wind: 12mph
Humidity: 49%   Direction: 150°SSE
Pressure: 30.2"   Gusts: NA
Location:  29.44°N, 90.6°W
Report Text: KHUM 202150Z 15010KT 7SM SCT040 19/08 A3020 RMK RY12/30 CLOSED ATIS V VA/RY18 LJ
Loading
Personal Weather Stations






























Interactive Weather Map New forecast layout! Learn more

10-Day Weather Forecast

Advertisements
Track Severe Weather on mobile